Time;durP1;ratioP1;P1;durP2;ratioP2;P2;SDS_P1;SDS_P2;PMS_P1;PMS_P2;Temp;Humidity;BMP_temperature;BMP_pressure;BME280_temperature;BME280_humidity;BME280_pressure;Samples;Min_cycle;Max_cycle;Signal;HPM_P1;HPM_P2
2021/11/24 00:00:49;1018098.00;3.39;1764.55;94733.00;0.32;164.48;;;;;2.40;1.00;;;;;;2272557;61;1932;-85
2021/11/24 00:03:16;365515.00;1.22;630.53;28967.00;0.10;50.80;;;;;2.30;1.00;;;;;;2272979;61;1028;-81
2021/11/24 00:05:43;307932.00;1.03;531.55;0.00;0.00;0.62;;;;;2.40;1.00;;;;;;2272891;61;993;-83
2021/11/24 00:08:10;403914.00;1.35;696.53;0.00;0.00;0.62;;;;;2.20;1.00;;;;;;2272504;61;1439;-83
2021/11/24 00:10:38;398287.00;1.33;686.86;30803.00;0.10;53.97;;;;;2.10;1.00;;;;;;2272482;60;947;-82
2021/11/24 00:13:05;1228482.00;4.09;2141.80;141810.00;0.47;245.69;;;;;2.10;1.00;;;;;;2272939;61;1028;-83
2021/11/24 00:18:02;342830.00;1.14;591.54;0.00;0.00;0.62;;;;;2.00;1.00;;;;;;2274877;60;1428;-85
2021/11/24 00:22:57;210343.00;0.70;363.73;0.00;0.00;0.62;;;;;2.10;1.00;;;;;;2275001;60;1375;-84
2021/11/24 00:25:24;237931.00;0.79;411.19;0.00;0.00;0.62;;;;;2.20;1.00;;;;;;2269126;61;997;-84
2021/11/24 00:27:51;288045.00;0.96;497.37;0.00;0.00;0.62;;;;;2.30;1.00;;;;;;2272832;61;1398;-83
2021/11/24 00:30:17;2152947.00;7.18;3943.25;316314.00;1.05;545.96;;;;;2.10;1.00;;;;;;2265788;61;985;-84
2021/11/24 00:32:44;480080.00;1.60;827.54;101584.00;0.34;176.31;;;;;1.80;1.00;;;;;;2269209;61;1009;-84
2021/11/24 00:35:14;506787.00;1.69;873.51;108188.00;0.36;187.70;;;;;1.90;1.00;;;;;;2269176;61;1003;-81
2021/11/24 00:37:41;317665.00;1.06;548.28;0.00;0.00;0.62;;;;;2.00;1.00;;;;;;2268294;61;1416;-82
2021/11/24 00:40:08;511101.00;1.70;880.94;0.00;0.00;0.62;;;;;1.90;1.00;;;;;;2268540;61;1993;-84
2021/11/24 00:42:35;259079.00;0.86;447.56;0.00;0.00;0.62;;;;;1.70;1.00;;;;;;2264850;61;948;-85
2021/11/24 00:45:03;365924.00;1.22;631.23;0.00;0.00;0.62;;;;;1.50;1.00;;;;;;2258498;61;1017;-85
2021/11/24 00:47:30;1154505.00;3.85;2008.18;226418.00;0.75;391.39;;;;;1.60;1.00;;;;;;2258517;61;1470;-85
2021/11/24 00:49:57;1189902.00;3.97;2071.97;132529.00;0.44;229.69;;;;;1.80;1.00;;;;;;2258605;61;971;-85
2021/11/24 00:52:28;526466.00;1.75;907.40;92760.00;0.31;161.07;;;;;2.00;1.00;;;;;;2268464;61;1006;-84
2021/11/24 00:54:55;397437.00;1.32;685.40;94934.00;0.32;164.83;;;;;1.80;1.00;;;;;;2265652;61;997;-85
2021/11/24 00:57:22;336887.00;1.12;581.32;0.00;0.00;0.62;;;;;1.80;1.00;;;;;;2269034;61;1463;-83
2021/11/24 00:59:49;221782.00;0.74;383.41;0.00;0.00;0.62;;;;;1.90;1.00;;;;;;2272771;61;2005;-83
2021/11/24 01:02:16;424261.00;1.41;731.52;0.00;0.00;0.62;;;;;2.00;1.00;;;;;;2264182;61;978;-85
2021/11/24 01:04:43;269414.00;0.90;465.34;0.00;0.00;0.62;;;;;1.80;1.00;;;;;;2256153;61;1075;-85
2021/11/24 01:07:09;486125.00;1.62;837.94;0.00;0.00;0.62;;;;;1.80;1.00;;;;;;2256067;61;1421;-82
2021/11/24 01:09:38;362407.00;1.21;625.19;0.00;0.00;0.62;;;;;1.70;1.00;;;;;;2252799;61;1007;-83
2021/11/24 01:12:05;1277831.00;4.26;2231.59;178725.00;0.60;309.29;;;;;1.70;1.00;;;;;;2252847;61;953;-85
2021/11/24 01:14:32;1480982.00;4.94;2607.39;94805.00;0.32;164.60;;;;;1.80;1.00;;;;;;2256180;61;1031;-85
2021/11/24 01:16:59;912341.00;3.04;1577.81;124183.00;0.41;215.30;;;;;1.90;1.00;;;;;;2252811;61;998;-83
2021/11/24 01:19:26;522513.00;1.74;900.59;107060.00;0.36;185.76;;;;;1.70;1.00;;;;;;2257016;61;1914;-84
2021/11/24 01:21:53;334239.00;1.11;576.77;0.00;0.00;0.62;;;;;1.70;1.00;;;;;;2265095;61;956;-85
2021/11/24 01:24:21;267088.00;0.89;461.34;0.00;0.00;0.62;;;;;1.70;1.00;;;;;;2264118;61;970;-84
2021/11/24 01:26:49;162152.00;0.54;280.75;0.00;0.00;0.62;;;;;1.80;1.00;;;;;;2257495;61;957;-83
2021/11/24 01:29:16;249656.00;0.83;431.36;0.00;0.00;0.62;;;;;1.80;1.00;;;;;;2254187;61;1374;-84
2021/11/24 01:31:43;428140.00;1.43;738.19;7708.00;0.03;13.98;;;;;1.70;1.00;;;;;;2264202;61;1017;-85
2021/11/24 01:34:09;257715.00;0.86;445.22;22437.00;0.07;39.49;;;;;1.60;1.00;;;;;;2256099;61;1052;-84
2021/11/24 01:36:36;223539.00;0.75;386.43;0.00;0.00;0.62;;;;;1.60;1.00;;;;;;2259925;61;963;-82
2021/11/24 01:39:04;1426242.00;4.75;2505.08;121596.00;0.41;210.84;;;;;1.60;1.00;;;;;;2250172;61;1316;-84
2021/11/24 01:41:31;1630261.00;5.43;2890.71;194173.00;0.65;335.89;;;;;1.50;1.00;;;;;;2260999;61;1936;-83
2021/11/24 01:43:59;1558195.00;5.19;2753.11;144733.00;0.48;250.73;;;;;1.70;1.00;;;;;;2260091;61;933;-86
2021/11/24 01:46:26;1582279.00;5.27;2798.92;257105.00;0.86;444.17;;;;;1.40;1.00;;;;;;2253503;61;962;-85
2021/11/24 01:48:53;726155.00;2.42;1252.62;119444.00;0.40;207.12;;;;;1.40;1.00;;;;;;2256724;61;1382;-84
2021/11/24 01:53:48;118343848.00;394.48;67139016.00;94659.00;0.32;164.35;;;;;1.40;1.00;;;;;;2274157;61;1414;-84
2021/11/24 01:56:17;506075.00;1.69;872.28;97666.00;0.33;169.54;;;;;1.30;1.00;;;;;;2272608;61;1028;-84
2021/11/24 02:01:13;787953.00;2.63;1360.12;45758.00;0.15;79.85;;;;;1.20;1.00;;;;;;2274193;61;1899;-84
2021/11/24 02:03:39;354404.00;1.18;611.43;0.00;0.00;0.62;;;;;1.30;1.00;;;;;;2265628;61;1002;-84
2021/11/24 02:06:07;276237.00;0.92;477.07;0.00;0.00;0.62;;;;;1.20;1.00;;;;;;2272676;61;933;-83
2021/11/24 02:08:34;339598.00;1.13;585.98;0.00;0.00;0.62;;;;;1.40;1.00;;;;;;2272707;61;1385;-84
2021/11/24 02:11:01;238826.00;0.80;412.73;0.00;0.00;0.62;;;;;1.10;1.00;;;;;;2269011;61;962;-85
2021/11/24 02:13:28;368141.00;1.23;635.04;0.00;0.00;0.62;;;;;1.10;1.00;;;;;;2272302;61;957;-84
2021/11/24 02:15:55;284852.00;0.95;491.88;0.00;0.00;0.62;;;;;1.10;1.00;;;;;;2272219;61;955;-81
2021/11/24 02:18:23;493453.00;1.64;850.55;6067.00;0.02;11.13;;;;;1.10;1.00;;;;;;2268927;61;1345;-83
2021/11/24 02:20:52;231679.00;0.77;400.44;0.00;0.00;0.62;;;;;1.20;1.00;;;;;;2272287;60;1913;-85
2021/11/24 02:25:47;312902.00;1.04;540.10;0.00;0.00;0.62;;;;;1.10;1.00;;;;;;2274382;60;1375;-85
2021/11/24 02:28:15;507635.00;1.69;874.97;23191.00;0.08;40.80;;;;;1.40;1.00;;;;;;2274720;61;1416;-84
2021/11/24 02:30:42;386540.00;1.29;666.67;20686.00;0.07;36.46;;;;;1.40;1.00;;;;;;2264781;61;1037;-85
2021/11/24 02:33:10;224746.00;0.75;388.51;0.00;0.00;0.62;;;;;1.50;1.00;;;;;;2263872;61;1053;-85
2021/11/24 02:35:37;427804.00;1.43;737.61;0.00;0.00;0.62;;;;;1.60;1.00;;;;;;2264105;61;978;-84
2021/11/24 02:38:07;146750.00;0.49;254.21;0.00;0.00;0.62;;;;;1.50;1.00;;;;;;2257473;61;1441;-84
2021/11/24 02:40:35;201392.00;0.67;348.32;0.00;0.00;0.62;;;;;1.40;1.00;;;;;;2259993;61;2005;-81
2021/11/24 02:43:03;230612.00;0.77;398.60;0.00;0.00;0.62;;;;;1.50;1.00;;;;;;2248090;61;1025;-86
2021/11/24 02:47:58;304700.00;1.02;526.00;0.00;0.00;0.62;;;;;1.50;1.00;;;;;;2274291;61;1428;-81
2021/11/24 02:50:25;214807.00;0.72;371.41;10213.00;0.03;18.32;;;;;1.30;1.00;;;;;;2268824;61;921;-82
2021/11/24 02:52:52;102932.00;0.34;178.63;0.00;0.00;0.62;;;;;1.30;1.00;;;;;;2272484;60;988;-85
2021/11/24 02:55:21;462111.00;1.54;796.62;54678.00;0.18;95.28;;;;;1.40;1.00;;;;;;2272599;61;1044;-83
2021/11/24 02:57:51;191613.00;0.64;331.49;0.00;0.00;0.62;;;;;1.40;1.00;;;;;;2265392;61;1433;-85
2021/11/24 03:05:16;259431.00;0.86;448.17;0.00;0.00;0.62;;;;;1.50;1.00;;;;;;2274544;60;1337;-84
2021/11/24 03:12:41;130244.00;0.43;225.75;0.00;0.00;0.62;;;;;1.40;1.00;;;;;;2274569;60;1395;-85
2021/11/24 03:20:10;140203.00;0.47;242.92;0.00;0.00;0.62;;;;;1.50;1.00;;;;;;2275101;61;1880;-85
2021/11/24 03:22:38;178290.00;0.59;308.54;0.00;0.00;0.62;;;;;1.60;1.00;;;;;;2269636;61;963;-84
2021/11/24 03:25:08;398585.00;1.33;687.37;34378.00;0.11;60.16;;;;;1.30;1.00;;;;;;2269347;61;1045;-84
2021/11/24 03:27:36;296204.00;0.99;511.39;0.00;0.00;0.62;;;;;1.40;1.00;;;;;;2264568;61;1426;-84
2021/11/24 03:30:09;309912.00;1.03;534.96;16581.00;0.06;29.35;;;;;1.40;1.00;;;;;;2257944;61;1045;-84
2021/11/24 03:32:36;222605.00;0.74;384.83;0.00;0.00;0.62;;;;;1.40;1.00;;;;;;2252875;61;958;-84
2021/11/24 03:35:04;245666.00;0.82;424.50;0.00;0.00;0.62;;;;;1.40;1.00;;;;;;2246173;61;1063;-84
2021/11/24 03:37:31;222265.00;0.74;384.24;0.00;0.00;0.62;;;;;1.40;1.00;;;;;;2252779;61;1412;-85
2021/11/24 03:39:58;171995.00;0.57;297.70;0.00;0.00;0.62;;;;;1.40;1.00;;;;;;2244692;61;2050;-85
2021/11/24 03:42:25;165498.00;0.55;286.51;0.00;0.00;0.62;;;;;1.40;1.00;;;;;;2241391;61;1031;-84
2021/11/24 03:44:52;232835.00;0.78;402.43;0.00;0.00;0.62;;;;;1.30;1.00;;;;;;2249386;61;974;-85
2021/11/24 03:47:20;505454.00;1.68;871.21;52198.00;0.17;90.99;;;;;1.50;1.00;;;;;;2252714;61;1286;-84
2021/11/24 03:49:47;245991.00;0.82;425.06;0.00;0.00;0.62;;;;;1.60;1.00;;;;;;2253656;61;948;-85
2021/11/24 03:52:14;348981.00;1.16;602.11;14777.00;0.05;26.22;;;;;1.70;1.00;;;;;;2260660;61;1005;-85
2021/11/24 03:54:41;211885.00;0.71;366.38;0.00;0.00;0.62;;;;;1.70;1.00;;;;;;2260755;61;1029;-84
2021/11/24 03:57:08;306209.00;1.02;528.59;0.00;0.00;0.62;;;;;1.50;1.00;;;;;;2261717;61;1433;-85
2021/11/24 03:59:36;293580.00;0.98;506.88;0.00;0.00;0.62;;;;;1.60;1.00;;;;;;2262129;61;975;-85
2021/11/24 04:02:03;216805.00;0.72;374.85;0.00;0.00;0.62;;;;;1.60;1.00;;;;;;2260653;61;2041;-85
2021/11/24 04:04:31;234692.00;0.78;405.62;0.00;0.00;0.62;;;;;1.60;1.00;;;;;;2256423;61;985;-85
2021/11/24 04:06:58;358861.00;1.20;619.09;46386.00;0.15;80.94;;;;;1.60;1.00;;;;;;2246928;61;1057;-84
2021/11/24 04:09:25;419596.00;1.40;723.50;25056.00;0.08;44.02;;;;;1.60;1.00;;;;;;2250047;61;1319;-83
2021/11/24 04:11:52;422206.00;1.41;727.98;0.00;0.00;0.62;;;;;1.60;1.00;;;;;;2250075;61;982;-84
2021/11/24 04:14:19;1195348.00;3.98;2081.81;0.00;0.00;0.62;;;;;1.70;1.00;;;;;;2246944;61;1009;-85
2021/11/24 04:16:46;1318302.00;4.39;2305.64;0.00;0.00;0.62;;;;;1.80;1.00;;;;;;2250079;61;1028;-85
2021/11/24 04:19:13;1737293.00;5.79;3098.12;0.00;0.00;0.62;;;;;1.60;1.00;;;;;;2257513;61;1370;-84
2021/11/24 04:21:41;509109.00;1.70;877.51;0.00;0.00;0.62;;;;;1.80;1.00;;;;;;2258271;61;1935;-82
2021/11/24 04:24:08;392596.00;1.31;677.08;0.00;0.00;0.62;;;;;1.80;1.00;;;;;;2260611;61;1008;-85
2021/11/24 04:26:35;494303.00;1.65;852.02;0.00;0.00;0.62;;;;;1.80;1.00;;;;;;2253864;61;1005;-84
2021/11/24 04:29:01;283796.00;0.95;490.06;0.00;0.00;0.62;;;;;1.80;1.00;;;;;;2260806;61;1314;-86
2021/11/24 04:31:28;486855.00;1.62;839.20;0.00;0.00;0.62;;;;;1.80;1.00;;;;;;2257147;61;971;-85
2021/11/24 04:33:55;372485.00;1.24;642.51;1119.00;0.00;2.56;;;;;1.70;1.00;;;;;;2250889;61;963;-85
2021/11/24 04:36:22;237577.00;0.79;410.58;0.00;0.00;0.62;;;;;1.60;1.00;;;;;;2257249;61;1009;-83
2021/11/24 04:38:50;502252.00;1.67;865.70;0.00;0.00;0.62;;;;;1.80;1.00;;;;;;2252414;61;1349;-85
2021/11/24 04:41:17;258969.00;0.86;447.38;0.00;0.00;0.62;;;;;1.80;1.00;;;;;;2247275;61;1999;-85
2021/11/24 04:43:46;221566.00;0.74;383.04;0.00;0.00;0.62;;;;;1.80;1.00;;;;;;2257678;61;947;-85
2021/11/24 04:46:16;294974.00;0.98;509.28;0.00;0.00;0.62;;;;;1.60;1.00;;;;;;2256145;61;1053;-85
2021/11/24 04:48:44;162210.00;0.54;280.85;0.00;0.00;0.62;;;;;1.70;1.00;;;;;;2256206;61;1279;-84
2021/11/24 04:51:12;247230.00;0.82;427.19;0.00;0.00;0.62;;;;;1.60;1.00;;;;;;2249751;61;962;-83
2021/11/24 04:53:39;306236.00;1.02;528.64;0.00;0.00;0.62;;;;;1.50;1.00;;;;;;2256258;61;961;-86
2021/11/24 04:56:08;405894.00;1.35;699.94;51663.00;0.17;90.06;;;;;1.40;1.00;;;;;;2257594;61;963;-86
2021/11/24 04:58:42;164431.00;0.55;284.67;0.00;0.00;0.62;;;;;1.40;1.00;;;;;;2264345;61;1415;-85
2021/11/24 05:03:37;338852.00;1.13;584.70;38845.00;0.13;67.89;;;;;1.60;1.00;;;;;;2274259;61;1410;-86
2021/11/24 05:10:59;227007.00;0.76;392.40;0.00;0.00;0.62;;;;;3.90;1.00;;;;;;2290438;40;3606;31
2021/11/24 05:13:28;354388.00;1.18;611.40;34915.00;0.12;61.09;;;;;4.50;1.00;;;;;;2270256;61;1354;-83
2021/11/24 05:18:29;201410.00;0.67;348.35;0.00;0.00;0.62;;;;;5.00;1.00;;;;;;2274912;61;1367;-83
2021/11/24 05:21:02;95997.00;0.32;166.66;0.00;0.00;0.62;;;;;5.70;1.00;;;;;;2268146;61;1996;-83
2021/11/24 05:23:31;86210.00;0.29;149.76;0.00;0.00;0.62;;;;;5.90;1.00;;;;;;2256075;61;951;-86
2021/11/24 05:25:58;90365.00;0.30;156.94;0.00;0.00;0.62;;;;;6.00;1.00;;;;;;2255844;61;936;-83
2021/11/24 05:28:25;110463.00;0.37;191.63;0.00;0.00;0.62;;;;;6.10;1.00;;;;;;2249247;61;1319;-84
2021/11/24 05:30:53;367881.00;1.23;634.59;63634.00;0.21;110.76;;;;;6.30;1.00;;;;;;2248127;61;968;-82
2021/11/24 05:33:20;213961.00;0.71;369.95;0.00;0.00;0.62;;;;;5.40;1.00;;;;;;2247870;61;1040;-85
2021/11/24 05:38:14;179291.00;0.60;310.27;0.00;0.00;0.62;;;;;5.00;1.00;;;;;;2274756;61;1397;-85
2021/11/24 05:40:41;299782.00;1.00;517.55;17712.00;0.06;31.31;;;;;4.60;1.00;;;;;;2272778;61;1913;-85
2021/11/24 05:43:08;257089.00;0.86;444.14;0.00;0.00;0.62;;;;;4.00;1.00;;;;;;2272295;61;937;-83
2021/11/24 05:45:40;357704.00;1.19;617.10;10492.00;0.03;18.80;;;;;3.90;1.00;;;;;;2272482;61;1062;-85
2021/11/24 05:48:11;708726.00;2.36;1222.37;68055.00;0.23;118.40;;;;;3.20;1.00;;;;;;2265749;60;1422;-85
2021/11/24 05:50:39;286308.00;0.95;494.38;0.00;0.00;0.62;;;;;3.00;1.00;;;;;;2272392;61;1048;-85
2021/11/24 05:53:07;202866.00;0.68;350.86;0.00;0.00;0.62;;;;;2.60;1.00;;;;;;2269092;61;985;-82
2021/11/24 05:55:33;150705.00;0.50;261.02;0.00;0.00;0.62;;;;;2.20;1.00;;;;;;2268279;61;925;-87
2021/11/24 05:58:00;272253.00;0.91;470.22;0.00;0.00;0.62;;;;;2.30;1.00;;;;;;2268230;61;1412;-86
2021/11/24 06:00:27;148940.00;0.50;257.98;0.00;0.00;0.62;;;;;2.70;1.00;;;;;;2268369;61;925;-86
2021/11/24 06:10:27;307320.00;1.02;530.50;0.00;0.00;0.62;;;;;3.00;1.00;;;;;;2274804;61;1276;-86
2021/11/24 06:12:54;235684.00;0.79;407.33;0.00;0.00;0.62;;;;;3.00;1.00;;;;;;2268717;61;1000;-86
2021/11/24 06:15:30;141288.00;0.47;244.79;0.00;0.00;0.62;;;;;2.80;1.00;;;;;;2263982;61;1042;-85
2021/11/24 06:17:57;190934.00;0.64;330.32;0.00;0.00;0.62;;;;;2.40;1.00;;;;;;2260694;61;1464;-86
2021/11/24 06:20:24;260987.00;0.87;450.85;0.00;0.00;0.62;;;;;2.10;1.00;;;;;;2385842;40;4071;-82
2021/11/24 06:27:51;399207.00;1.33;688.44;14799.00;0.05;26.26;;;;;1.70;1.00;;;;;;2270206;61;1361;-82
2021/11/24 06:30:18;363685.00;1.21;627.38;37381.00;0.12;65.36;;;;;1.70;1.00;;;;;;2376866;40;3998;31
2021/11/24 06:32:47;173264.00;0.58;299.89;0.00;0.00;0.62;;;;;1.60;1.00;;;;;;2269909;61;1367;-86
2021/11/24 06:40:20;740190.00;2.47;1277.01;0.00;0.00;0.62;;;;;2.10;1.00;;;;;;2274569;61;1330;-83
2021/11/24 06:42:47;183530.00;0.61;317.57;0.00;0.00;0.62;;;;;1.90;1.00;;;;;;2269511;61;2025;-83
2021/11/24 06:45:16;91408.00;0.30;158.74;0.00;0.00;0.62;;;;;1.90;1.00;;;;;;2266026;61;968;-83
2021/11/24 06:47:44;297878.00;0.99;514.27;0.00;0.00;0.62;;;;;1.90;1.00;;;;;;2265480;61;1353;-84
2021/11/24 06:50:13;304388.00;1.01;525.46;0.00;0.00;0.62;;;;;1.30;1.00;;;;;;2262173;61;936;-84
2021/11/24 06:52:40;231599.00;0.77;400.30;0.00;0.00;0.62;;;;;1.10;1.00;;;;;;2262079;61;1050;-84
2021/11/24 06:55:09;205248.00;0.68;354.96;0.00;0.00;0.62;;;;;1.10;1.00;;;;;;2269007;61;1044;-84
2021/11/24 06:57:37;119383928.00;397.95;68926440.00;38334.00;0.13;67.01;;;;;1.20;1.00;;;;;;2269197;61;1364;-83
2021/11/24 07:00:06;142283.00;0.47;246.51;0.00;0.00;0.62;;;;;1.80;1.00;;;;;;2265524;61;949;-84
2021/11/24 07:02:34;70319.00;0.23;122.31;0.00;0.00;0.62;;;;;2.80;1.00;;;;;;2269176;61;1980;-84
2021/11/24 07:05:02;172730.00;0.58;298.97;0.00;0.00;0.62;;;;;2.50;1.00;;;;;;2269178;61;898;-85
2021/11/24 07:07:29;269870.00;0.90;466.12;0.00;0.00;0.62;;;;;2.20;1.00;;;;;;2262116;61;1406;-84
2021/11/24 07:09:56;166033.00;0.55;287.43;0.00;0.00;0.62;;;;;2.10;1.00;;;;;;2268932;61;1045;-85
2021/11/24 07:12:25;154281.00;0.51;267.19;0.00;0.00;0.62;;;;;1.90;1.00;;;;;;2258864;61;981;-85
2021/11/24 07:14:52;452136.00;1.51;779.46;35025.00;0.12;61.28;;;;;1.70;1.00;;;;;;2262024;61;1055;-85
2021/11/24 07:17:19;328070.00;1.09;566.17;0.00;0.00;0.62;;;;;1.40;1.00;;;;;;2265216;61;1432;-86
2021/11/24 07:19:49;212198.00;0.71;366.92;0.00;0.00;0.62;;;;;1.60;1.00;;;;;;2260505;61;973;-85
2021/11/24 07:22:15;275660.00;0.92;476.08;0.00;0.00;0.62;;;;;1.50;1.00;;;;;;2260510;61;1989;-85
2021/11/24 07:27:10;190004.00;0.63;328.72;0.00;0.00;0.62;;;;;1.70;1.00;;;;;;2274567;60;1415;-84
2021/11/24 07:37:02;303858.00;1.01;524.55;12364.00;0.04;22.04;;;;;1.40;1.00;;;;;;2275147;60;1398;-86
2021/11/24 07:41:57;149986.00;0.50;259.78;0.00;0.00;0.62;;;;;1.50;1.00;;;;;;2275028;61;1946;-84
2021/11/24 07:44:24;179796.00;0.60;311.14;0.00;0.00;0.62;;;;;1.60;1.00;;;;;;2273224;61;878;-84
2021/11/24 07:51:52;304348.00;1.01;525.39;0.00;0.00;0.62;;;;;1.90;1.00;;;;;;2274951;61;1244;-83
2021/11/24 07:54:21;293554.00;0.98;506.84;0.00;0.00;0.62;;;;;2.10;1.00;;;;;;2269122;61;923;-86
2021/11/24 07:56:48;108236.00;0.36;187.79;0.00;0.00;0.62;;;;;2.20;1.00;;;;;;2273021;61;1028;-86
2021/11/24 07:59:15;482509.00;1.61;831.72;52130.00;0.17;90.87;;;;;2.00;1.00;;;;;;2273012;61;1535;-85
2021/11/24 08:01:41;348948.00;1.16;602.05;37174.00;0.12;65.00;;;;;1.90;1.00;;;;;;2273076;61;1982;-85
2021/11/24 08:09:05;268330.00;0.89;463.47;0.00;0.00;0.62;;;;;2.10;1.00;;;;;;2270575;61;1422;-86
2021/11/24 08:11:33;210648.00;0.70;364.25;0.00;0.00;0.62;;;;;2.40;1.00;;;;;;2269047;61;969;-83
2021/11/24 08:16:28;199709.00;0.67;345.42;0.00;0.00;0.62;;;;;2.20;1.00;;;;;;2274707;61;1396;-86
2021/11/24 08:18:55;123739.00;0.41;214.53;0.00;0.00;0.62;;;;;2.20;1.00;;;;;;2273121;61;1421;-84
2021/11/24 08:21:23;273869.00;0.91;473.00;51132.00;0.17;89.14;;;;;2.10;1.00;;;;;;2269356;61;1917;-84
2021/11/24 08:26:18;281392.00;0.94;485.93;0.00;0.00;0.62;;;;;2.50;1.00;;;;;;2274490;61;1472;-83
2021/11/24 08:28:46;218426.00;0.73;377.64;0.00;0.00;0.62;;;;;2.70;1.00;;;;;;2273064;61;1399;-84
2021/11/24 08:33:41;261635.00;0.87;451.96;0.00;0.00;0.62;;;;;3.00;1.00;;;;;;2275112;61;1319;-85
2021/11/24 08:36:10;238441.00;0.79;412.07;0.00;0.00;0.62;;;;;3.00;1.00;;;;;;2272668;61;993;-82
2021/11/24 08:41:05;178267.00;0.59;308.51;0.00;0.00;0.62;;;;;2.90;1.00;;;;;;2274382;61;1435;-86
2021/11/24 08:46:02;201391.00;0.67;348.32;0.00;0.00;0.62;;;;;3.10;1.00;;;;;;2274813;60;1313;-83
2021/11/24 08:48:30;163994.00;0.55;283.92;0.00;0.00;0.62;;;;;3.00;1.00;;;;;;2268432;61;1478;-85
2021/11/24 08:50:57;277939.00;0.93;479.99;55585.00;0.19;96.84;;;;;2.40;1.00;;;;;;2268396;61;1032;-85
2021/11/24 08:53:25;203102.00;0.68;351.26;0.00;0.00;0.62;;;;;2.50;1.00;;;;;;2264334;61;1054;-84
2021/11/24 08:55:52;118663.00;0.40;205.78;0.00;0.00;0.62;;;;;2.30;1.00;;;;;;2257884;61;949;-85
2021/11/24 08:58:19;229056.00;0.76;395.92;9597.00;0.03;17.25;;;;;2.40;1.00;;;;;;2257850;61;1445;-84
2021/11/24 09:00:47;176727.00;0.59;305.85;0.00;0.00;0.62;;;;;2.40;1.00;;;;;;2264506;61;1025;-85
2021/11/24 09:05:43;186806.00;0.62;323.21;0.00;0.00;0.62;;;;;2.70;1.00;;;;;;2274527;61;1313;-86
2021/11/24 09:08:10;252201.00;0.84;435.74;21212.00;0.07;37.37;;;;;3.20;1.00;;;;;;2269115;61;1429;-83
2021/11/24 09:13:06;250264.00;0.83;432.41;0.00;0.00;0.62;;;;;2.40;1.00;;;;;;2274521;61;1347;-84
2021/11/24 09:15:33;207476.00;0.69;358.79;0.00;0.00;0.62;;;;;2.30;1.00;;;;;;2265823;61;1021;-84
2021/11/24 09:20:28;182305.00;0.61;315.46;0.00;0.00;0.62;;;;;2.70;1.00;;;;;;2275150;61;1299;-85
2021/11/24 09:22:56;209103.00;0.70;361.59;0.00;0.00;0.62;;;;;3.20;1.00;;;;;;2269164;61;1927;-85
2021/11/24 09:27:59;310326.00;1.03;535.67;0.00;0.00;0.62;;;;;2.90;1.00;;;;;;2270737;61;1285;-83
2021/11/24 09:30:27;122691192.00;408.97;74820608.00;36912.00;0.12;64.55;;;;;2.90;1.00;;;;;;2268898;61;908;-85
2021/11/24 09:32:55;253077.00;0.84;437.24;0.00;0.00;0.62;;;;;2.80;1.00;;;;;;2261788;61;1033;-86
2021/11/24 09:40:20;247248.00;0.82;427.22;0.00;0.00;0.62;;;;;2.70;1.00;;;;;;2274544;61;1400;-87
2021/11/24 09:42:49;311171.00;1.04;537.12;39018.00;0.13;68.19;;;;;3.20;1.00;;;;;;2272796;61;1981;-85
2021/11/24 09:45:17;308603.00;1.03;532.71;0.00;0.00;0.62;;;;;3.20;1.00;;;;;;2265727;61;1000;-84
2021/11/24 09:47:46;159735.00;0.53;276.58;0.00;0.00;0.62;;;;;3.00;1.00;;;;;;2272820;61;1439;-84
2021/11/24 09:50:14;206165.00;0.69;356.54;12605.00;0.04;22.46;;;;;2.80;1.00;;;;;;2263904;61;949;-85
2021/11/24 09:52:44;297133.00;0.99;512.99;0.00;0.00;0.62;;;;;3.10;1.00;;;;;;2257753;61;1002;-83
2021/11/24 09:55:12;243337.00;0.81;420.49;73984.00;0.25;128.64;;;;;3.00;1.00;;;;;;2264429;61;1013;-85
2021/11/24 09:57:42;90032.00;0.30;156.36;0.00;0.00;0.62;;;;;3.10;1.00;;;;;;2257581;61;1461;-85
2021/11/24 10:00:11;244804.00;0.82;423.01;0.00;0.00;0.62;;;;;3.30;1.00;;;;;;2256196;61;1065;-85
2021/11/24 10:07:43;91925.00;0.31;159.63;0.00;0.00;0.62;;;;;4.30;1.00;;;;;;2274651;61;1460;-86
2021/11/24 10:12:38;108963.00;0.36;189.04;0.00;0.00;0.62;;;;;4.10;1.00;;;;;;2274500;61;1403;-82
2021/11/24 10:15:10;220390.00;0.73;381.01;0.00;0.00;0.62;;;;;3.80;1.00;;;;;;2266136;61;1041;-85
2021/11/24 10:22:34;346003.00;1.15;596.99;0.00;0.00;0.62;;;;;3.20;1.00;;;;;;2275341;61;1986;-83
2021/11/24 10:25:06;163533.00;0.55;283.13;0.00;0.00;0.62;;;;;3.10;1.00;;;;;;2269541;61;922;-84
2021/11/24 10:27:39;219003.00;0.73;378.63;9509.00;0.03;17.10;;;;;3.00;1.00;;;;;;2266116;61;1345;-84
2021/11/24 10:30:09;158900.00;0.53;275.14;0.00;0.00;0.62;;;;;2.80;1.00;;;;;;2273332;61;997;-82
2021/11/24 10:32:36;109308.00;0.36;189.64;0.00;0.00;0.62;;;;;2.80;1.10;;;;;;2268797;61;877;-83
2021/11/24 10:35:04;179830.00;0.60;311.20;0.00;0.00;0.62;;;;;3.20;1.70;;;;;;2262119;61;1002;-83
2021/11/24 10:37:33;317452.00;1.06;547.92;0.00;0.00;0.62;;;;;3.70;1.00;;;;;;2268833;61;1423;-84
2021/11/24 10:40:06;223015.00;0.74;385.53;0.00;0.00;0.62;;;;;3.50;1.00;;;;;;2264742;61;929;-84
2021/11/24 10:42:37;169091.00;0.56;292.70;0.00;0.00;0.62;;;;;3.10;1.10;;;;;;2264652;61;1915;-82
2021/11/24 10:45:13;342695.00;1.14;591.31;0.00;0.00;0.62;;;;;3.00;1.90;;;;;;2258094;61;1002;-83
2021/11/24 10:47:50;268325.00;0.89;463.46;8861.00;0.03;15.98;;;;;3.30;1.90;;;;;;2258061;61;1456;-85
2021/11/24 10:50:22;179552.00;0.60;310.72;0.00;0.00;0.62;;;;;3.30;1.00;;;;;;2267390;61;1028;-84
2021/11/24 10:52:49;485239.00;1.62;836.41;33848.00;0.11;59.24;;;;;3.30;1.70;;;;;;2262778;61;986;-83
2021/11/24 10:55:25;78888.00;0.26;137.12;0.00;0.00;0.62;;;;;3.40;1.00;;;;;;2272816;61;1016;-86
2021/11/24 10:58:01;238400.00;0.79;412.00;36952.00;0.12;64.61;;;;;3.70;1.00;;;;;;2267098;61;1341;-83
2021/11/24 11:00:35;306781.00;1.02;529.58;0.00;0.00;0.62;;;;;3.60;1.00;;;;;;2269585;61;1029;-85
2021/11/24 11:03:02;135459.00;0.45;234.74;0.00;0.00;0.62;;;;;3.70;1.00;;;;;;2273142;61;1984;-85
2021/11/24 11:05:30;343840.00;1.15;593.27;61292.00;0.20;106.71;;;;;4.00;1.00;;;;;;2269397;61;943;-86
2021/11/24 11:08:02;119122.00;0.40;206.57;0.00;0.00;0.62;;;;;4.30;1.00;;;;;;2269513;61;1451;-84
2021/11/24 11:10:32;115608.00;0.39;200.51;0.00;0.00;0.62;;;;;4.10;1.00;;;;;;2266211;61;945;-85
2021/11/24 11:13:01;197872.00;0.66;342.26;0.00;0.00;0.62;;;;;4.30;1.00;;;;;;2269567;61;1006;-83
2021/11/24 11:15:35;37659.00;0.13;65.84;0.00;0.00;0.62;;;;;4.30;1.00;;;;;;2273245;61;1069;-85
2021/11/24 11:18:11;185174.00;0.62;320.40;0.00;0.00;0.62;;;;;4.70;1.00;;;;;;2269448;61;1415;-85
2021/11/24 11:20:46;118541.00;0.40;205.57;0.00;0.00;0.62;;;;;4.40;1.00;;;;;;2272987;61;1004;-84
2021/11/24 11:23:20;354693.00;1.18;611.93;23720.00;0.08;41.71;;;;;4.20;1.00;;;;;;2266111;61;1912;-85
2021/11/24 11:25:50;441655.00;1.47;761.43;14832.00;0.05;26.32;;;;;4.20;1.00;;;;;;2269156;61;1001;-84
2021/11/24 11:28:18;287677.00;0.96;496.74;0.00;0.00;0.62;;;;;4.40;1.00;;;;;;2273130;61;1316;-86
2021/11/24 11:33:16;114775.00;0.38;199.07;0.00;0.00;0.62;;;;;5.10;1.00;;;;;;2270434;61;1409;-86
2021/11/24 11:35:45;240965.00;0.80;416.41;0.00;0.00;0.62;;;;;5.00;1.00;;;;;;2269129;61;992;-85
2021/11/24 11:38:12;229785.00;0.77;397.18;0.00;0.00;0.62;;;;;5.00;1.00;;;;;;2264394;61;1389;-85
2021/11/24 11:40:41;107246.00;0.36;186.08;0.00;0.00;0.62;;;;;5.00;1.00;;;;;;2260916;61;938;-85
2021/11/24 11:43:10;100328.00;0.33;174.14;0.00;0.00;0.62;;;;;4.80;1.00;;;;;;2264423;61;2002;-85
2021/11/24 11:45:39;195888.00;0.65;338.85;0.00;0.00;0.62;;;;;4.80;1.00;;;;;;2260158;61;985;-84
2021/11/24 11:48:07;313385.00;1.04;540.93;0.00;0.00;0.62;;;;;4.90;1.00;;;;;;2254049;61;1346;-84
2021/11/24 11:50:54;177067.00;0.59;306.44;0.00;0.00;0.62;;;;;4.90;1.00;;;;;;2257228;61;1049;-87
2021/11/24 11:53:24;178292.00;0.59;308.55;0.00;0.00;0.62;;;;;5.00;1.00;;;;;;2256955;61;1137;-86
2021/11/24 11:56:15;128346.00;0.43;222.48;0.00;0.00;0.62;;;;;5.10;1.00;;;;;;2255972;61;1025;-84
2021/11/24 11:59:01;90067.00;0.30;156.42;0.00;0.00;0.62;;;;;5.40;1.00;;;;;;2252491;61;1379;-87
2021/11/24 12:01:31;48925.00;0.16;85.33;0.00;0.00;0.62;;;;;5.60;1.00;;;;;;2252479;61;1065;-84
2021/11/24 12:04:07;94674.00;0.32;164.38;0.00;0.00;0.62;;;;;5.40;1.00;;;;;;2255101;61;1920;-86
2021/11/24 12:12:09;257739.00;0.86;445.26;0.00;0.00;0.62;;;;;5.80;1.00;;;;;;2270153;61;1406;-86